EDDP

Leipzig Halle Airport

Leipzig, Germany
METAR EDDP 172120Z 07011KT CAVOK M00/M03 Q1034 NOSIG
Observed Flight Rules
Nov-17 @ 21:20 UTC (16 minutes ago) Visual Flight Rules
Wind Visibility Clouds
70° at 11 knots 10,000+ meters
  • Clear skies
Temperatures Readings
Current 0°C / 32°F
Dewpoint -3°C / 27°F
Humidity 80%
Altimeter 30.53" Hg
Pressure 1034 hPa
Elevation 149
METAR EDDP 172120Z 07011KT CAVOK M00/M03 Q1034 NOSIG
Observed Flight Rules
Nov-17 @ 21:20 UTC
(16 minutes ago)
VFR
Wind Visibility
70° at 11 knots 10,000+ meters
Clouds
  • Clear skies
Temperature Dewpoint
0°C / 32°F -3°C / 27°F
Humidity Altimeter Pressure
80% 30.53" Hg 1034 hPa